Terminal Aerodrome Forecast
Issued by NWS

Home | Current Version | Previous Version | Text Only | Print | Product List | Glossary On
Versions: 1 2 3 4 5 6 7 8 9 10 11 12 13
000
FTUS44 KTSA 161700
TAFXNA
TAF
KXNA 161737Z 1618/1718 03004KT P6SM OVC012
     FM162000 04004KT P6SM OVC020
     FM162200 VRB03KT P6SM BKN035
     FM170000 00000KT P6SM SCT045
     FM170900 00000KT 3SM BR SCT010
     FM171500 20006KT P6SM SCT050=

USA.gov is the U.S. government's official web portal to all federal, state and local government web resources and services.